createdAt,value
2023-04-02T00:00:05.917Z,82.51
2023-04-02T00:02:34.050Z,82.16
2023-04-02T00:05:20.442Z,82.35
2023-04-02T00:07:53.097Z,82.35
2023-04-02T00:10:29.098Z,82.56
2023-04-02T00:13:12.230Z,82.65
2023-04-02T00:15:43.553Z,82.68
2023-04-02T00:18:16.526Z,82.82
2023-04-02T00:20:49.287Z,82.73
2023-04-02T00:23:17.140Z,82.60
2023-04-02T00:25:46.383Z,82.63
2023-04-02T00:28:17.993Z,82.62
2023-04-02T00:30:47.163Z,82.80
2023-04-02T00:33:21.583Z,82.84
2023-04-02T00:35:52.109Z,82.71
2023-04-02T00:38:24.956Z,82.47
2023-04-02T00:40:56.546Z,82.57
2023-04-02T00:43:31.515Z,82.93
2023-04-02T00:46:14.711Z,82.60
2023-04-02T00:49:16.937Z,82.82
2023-04-02T00:51:51.668Z,82.56
2023-04-02T00:54:23.316Z,82.65
2023-04-02T00:56:53.758Z,82.81
2023-04-02T00:59:49.602Z,82.61
2023-04-02T01:02:20.083Z,82.95
2023-04-02T01:05:02.403Z,83.11
2023-04-02T01:07:49.516Z,82.83
2023-04-02T01:10:24.712Z,82.77
2023-04-02T01:13:12.484Z,82.99
2023-04-02T01:15:55.582Z,82.68
2023-04-02T01:18:50.375Z,83.18
2023-04-02T01:21:37.208Z,82.90
2023-04-02T01:24:11.325Z,83.24
2023-04-02T01:27:02.553Z,82.99
2023-04-02T01:29:37.208Z,82.92
2023-04-02T01:32:09.304Z,83.30
2023-04-02T01:34:38.134Z,83.08
2023-04-02T01:37:10.408Z,82.96
2023-04-02T01:39:47.300Z,83.10
2023-04-02T01:42:28.971Z,83.28
2023-04-02T01:45:19.779Z,83.14
2023-04-02T01:47:49.010Z,83.36
2023-04-02T01:50:19.728Z,83.06
2023-04-02T01:52:51.665Z,83.56
2023-04-02T01:55:25.565Z,83.52
2023-04-02T01:57:54.425Z,83.42
2023-04-02T02:00:23.216Z,83.68
2023-04-02T02:02:51.999Z,83.95
2023-04-02T02:05:23.786Z,83.76
2023-04-02T02:07:52.284Z,84.43
2023-04-02T02:10:49.645Z,84.18
2023-04-02T02:13:17.334Z,84.54
2023-04-02T02:15:45.713Z,83.98
2023-04-02T02:18:14.458Z,84.33
2023-04-02T02:20:42.747Z,84.10
2023-04-02T02:23:13.171Z,84.54
2023-04-02T02:25:41.724Z,84.29
2023-04-02T02:28:26.162Z,84.28
2023-04-02T02:30:59.259Z,84.27
2023-04-02T02:33:31.842Z,84.24
2023-04-02T02:36:05.011Z,84.46
2023-04-02T02:38:38.571Z,84.22
2023-04-02T02:41:21.660Z,84.17
2023-04-02T02:43:56.808Z,84.50
2023-04-02T02:46:27.352Z,84.38
2023-04-02T02:48:57.735Z,84.17
2023-04-02T02:51:37.608Z,84.32
2023-04-02T02:54:05.717Z,84.18
2023-04-02T02:56:38.523Z,84.90
2023-04-02T02:59:08.638Z,84.44
2023-04-02T03:01:36.974Z,84.88
2023-04-02T03:04:05.098Z,84.76
2023-04-02T03:06:33.252Z,84.72
2023-04-02T03:09:17.766Z,85.26
2023-04-02T03:12:03.830Z,84.83
2023-04-02T03:15:06.485Z,84.64
2023-04-02T03:17:41.369Z,85.06
2023-04-02T03:20:21.095Z,84.56
2023-04-02T03:23:22.082Z,84.79
2023-04-02T03:25:56.464Z,85.44
2023-04-02T03:28:28.934Z,85.36
2023-04-02T03:31:27.911Z,84.68
2023-04-02T03:34:18.596Z,85.22
2023-04-02T03:36:58.104Z,85.68
2023-04-02T03:39:58.158Z,85.54
2023-04-02T03:42:29.859Z,85.66
2023-04-02T03:45:05.230Z,85.20
2023-04-02T03:47:42.678Z,85.79
2023-04-02T03:50:24.814Z,85.78
2023-04-02T03:52:52.981Z,85.64
2023-04-02T03:55:29.160Z,85.95
2023-04-02T03:58:15.128Z,86.41
2023-04-02T04:01:07.244Z,85.84
2023-04-02T04:03:44.177Z,86.98
2023-04-02T04:06:15.934Z,86.60
2023-04-02T04:09:11.846Z,86.93
2023-04-02T04:11:46.765Z,87.15
2023-04-02T04:14:26.970Z,86.94
2023-04-02T04:17:05.371Z,86.74
2023-04-02T04:19:48.529Z,87.28
2023-04-02T04:22:30.709Z,86.85
2023-04-02T04:25:00.902Z,87.32
2023-04-02T04:27:56.693Z,87.27
2023-04-02T04:30:30.216Z,86.89
2023-04-02T04:33:11.107Z,87.52
2023-04-02T04:35:46.630Z,87.55
2023-04-02T04:38:27.661Z,87.86
2023-04-02T04:40:58.970Z,87.76
2023-04-02T04:43:52.828Z,87.38
2023-04-02T04:46:55.409Z,88.03
2023-04-02T04:49:31.976Z,87.81
2023-04-02T04:52:22.299Z,88.31
2023-04-02T04:54:50.113Z,87.67
2023-04-02T04:57:29.969Z,87.26
2023-04-02T05:00:19.641Z,87.99
2023-04-02T05:02:54.416Z,88.14
2023-04-02T05:05:29.352Z,88.72
2023-04-02T05:08:04.359Z,88.11
2023-04-02T05:11:04.365Z,88.95
2023-04-02T05:13:44.732Z,88.65
2023-04-02T05:16:15.587Z,89.50
2023-04-02T05:18:56.427Z,88.68
2023-04-02T05:21:38.433Z,89.04
2023-04-02T05:24:39.543Z,88.72
2023-04-02T05:27:24.541Z,88.87
2023-04-02T05:30:00.720Z,89.60
2023-04-02T05:32:34.759Z,89.10
2023-04-02T05:35:06.617Z,88.89
2023-04-02T05:37:34.635Z,89.02
2023-04-02T05:40:13.603Z,89.49
2023-04-02T05:42:45.223Z,88.89
2023-04-02T05:45:31.347Z,89.18
2023-04-02T05:48:03.582Z,88.55
2023-04-02T05:50:40.090Z,88.78
2023-04-02T05:53:21.694Z,89.05
2023-04-02T05:56:02.269Z,88.92
2023-04-02T05:58:48.186Z,88.79
2023-04-02T06:01:38.207Z,88.77
2023-04-02T06:04:37.771Z,88.59
2023-04-02T06:07:12.423Z,88.65
2023-04-02T06:10:00.440Z,89.29
2023-04-02T06:12:40.603Z,89.38
2023-04-02T06:15:21.154Z,89.45
2023-04-02T06:17:58.515Z,89.04
2023-04-02T06:20:27.122Z,89.04
2023-04-02T06:23:04.800Z,89.36
2023-04-02T06:25:37.937Z,89.18
2023-04-02T06:28:12.008Z,89.01
2023-04-02T06:30:41.759Z,88.61
2023-04-02T06:33:12.776Z,88.62
2023-04-02T06:35:43.055Z,88.80
2023-04-02T06:38:19.653Z,88.65
2023-04-02T06:40:55.235Z,88.60
2023-04-02T06:43:33.492Z,88.54
2023-04-02T06:46:07.364Z,88.60
2023-04-02T06:48:37.866Z,88.57
2023-04-02T06:51:09.212Z,88.21
2023-04-02T06:53:40.252Z,88.43
2023-04-02T06:56:32.998Z,88.23
2023-04-02T06:59:01.178Z,88.10
2023-04-02T07:01:33.600Z,88.19
2023-04-02T07:04:01.613Z,88.18
2023-04-02T07:06:29.584Z,88.03
2023-04-02T07:08:57.241Z,88.47
2023-04-02T07:11:24.915Z,88.45
2023-04-02T07:13:52.756Z,88.51
2023-04-02T07:16:25.796Z,88.04
2023-04-02T07:19:03.068Z,88.51
2023-04-02T07:21:31.422Z,87.98
2023-04-02T07:23:59.374Z,88.10
2023-04-02T07:26:29.174Z,88.52
2023-04-02T07:28:57.293Z,88.64
2023-04-02T07:31:27.860Z,88.74
2023-04-02T07:34:00.335Z,88.65
2023-04-02T07:36:29.840Z,88.88
2023-04-02T07:38:58.563Z,89.07
2023-04-02T07:41:26.560Z,88.78
2023-04-02T07:43:54.385Z,88.60
2023-04-02T07:46:22.266Z,88.63
2023-04-02T07:49:00.216Z,88.66
2023-04-02T07:51:28.373Z,88.60
2023-04-02T07:53:56.426Z,88.68
2023-04-02T07:56:25.496Z,88.57
2023-04-02T07:58:53.230Z,88.62
2023-04-02T08:01:25.566Z,88.79
2023-04-02T08:03:54.844Z,88.97
2023-04-02T08:06:23.981Z,88.76
2023-04-02T08:08:51.852Z,88.80
2023-04-02T08:11:20.075Z,88.56
2023-04-02T08:13:48.014Z,88.85
2023-04-02T08:16:16.910Z,88.29
2023-04-02T08:18:47.496Z,88.25
2023-04-02T08:21:16.533Z,88.42
2023-04-02T08:23:44.937Z,88.35
2023-04-02T08:26:17.467Z,88.24
2023-04-02T08:28:45.550Z,88.26
2023-04-02T08:31:13.537Z,88.39
2023-04-02T08:33:41.325Z,88.53
2023-04-02T08:36:15.701Z,88.28
2023-04-02T08:38:43.416Z,88.20
2023-04-02T08:41:22.606Z,88.38
2023-04-02T08:44:02.210Z,88.18
2023-04-02T08:46:45.838Z,88.46
2023-04-02T08:49:16.889Z,88.23
2023-04-02T08:51:46.394Z,88.49
2023-04-02T08:54:43.666Z,88.28
2023-04-02T08:57:21.319Z,87.70
2023-04-02T08:59:59.775Z,87.63
2023-04-02T09:02:47.340Z,87.07
2023-04-02T09:05:26.520Z,87.47
2023-04-02T09:07:58.580Z,87.05
2023-04-02T09:10:37.779Z,86.73
2023-04-02T09:13:20.656Z,86.30
2023-04-02T09:15:50.801Z,86.85
2023-04-02T09:18:20.757Z,86.72
2023-04-02T09:20:49.510Z,85.72
2023-04-02T09:23:23.902Z,86.20
2023-04-02T09:26:03.466Z,85.89
2023-04-02T09:28:34.857Z,85.86
2023-04-02T09:31:34.625Z,85.67
2023-04-02T09:34:22.504Z,86.04
2023-04-02T09:36:50.560Z,86.20
2023-04-02T09:39:21.240Z,85.47
2023-04-02T09:41:59.014Z,84.92
2023-04-02T09:44:33.760Z,84.62
2023-04-02T09:47:10.649Z,85.16
2023-04-02T09:49:39.972Z,84.96
2023-04-02T09:52:27.957Z,84.40
2023-04-02T09:55:08.393Z,84.51
2023-04-02T09:57:38.295Z,84.70
2023-04-02T10:00:25.261Z,84.33
2023-04-02T10:03:19.520Z,83.36
2023-04-02T10:05:48.738Z,84.25
2023-04-02T10:08:19.300Z,84.49
2023-04-02T10:10:53.064Z,83.76
2023-04-02T10:13:31.889Z,84.23
2023-04-02T10:16:12.170Z,83.79
2023-04-02T10:18:50.908Z,84.20
2023-04-02T10:21:25.314Z,84.13
2023-04-02T10:23:54.720Z,83.81
2023-04-02T10:26:44.182Z,84.08
2023-04-02T10:29:18.085Z,83.96
2023-04-02T10:31:54.678Z,83.37
2023-04-02T10:34:54.059Z,83.32
2023-04-02T10:37:49.738Z,83.54
2023-04-02T10:40:24.694Z,83.80
2023-04-02T10:43:15.424Z,83.67
2023-04-02T10:45:51.193Z,83.43
2023-04-02T10:48:40.497Z,83.57
2023-04-02T10:51:28.548Z,83.58
2023-04-02T10:54:03.716Z,83.60
2023-04-02T10:56:41.004Z,83.74
2023-04-02T10:59:33.024Z,83.89
2023-04-02T11:02:07.391Z,84.17
2023-04-02T11:04:44.219Z,83.73
2023-04-02T11:07:20.654Z,83.89
2023-04-02T11:09:53.593Z,83.76
2023-04-02T11:12:59.660Z,83.59
2023-04-02T11:15:29.357Z,83.80
2023-04-02T11:17:57.360Z,83.65
2023-04-02T11:20:54.617Z,83.87
2023-04-02T11:23:32.027Z,83.88
2023-04-02T11:26:29.655Z,84.01
2023-04-02T11:29:16.683Z,84.30
2023-04-02T11:31:46.205Z,84.15
2023-04-02T11:34:35.144Z,84.23
2023-04-02T11:37:07.892Z,84.97
2023-04-02T11:39:57.061Z,84.74
2023-04-02T11:42:27.497Z,84.53
2023-04-02T11:44:58.935Z,84.62
2023-04-02T11:47:28.570Z,84.70
2023-04-02T11:49:59.063Z,84.80
2023-04-02T11:52:36.153Z,84.46
2023-04-02T11:55:27.961Z,84.85
2023-04-02T11:58:33.379Z,85.02
2023-04-02T12:01:14.844Z,85.03
2023-04-02T12:03:48.564Z,85.16
2023-04-02T12:06:47.276Z,85.70
2023-04-02T12:09:53.838Z,86.08
2023-04-02T12:12:24.317Z,85.66
2023-04-02T12:15:02.407Z,85.87
2023-04-02T12:17:39.286Z,85.78
2023-04-02T12:20:08.569Z,86.13
2023-04-02T12:22:46.165Z,86.06
2023-04-02T12:25:31.488Z,86.00
2023-04-02T12:28:20.814Z,86.13
2023-04-02T12:30:51.159Z,85.94
2023-04-02T12:33:33.866Z,86.24
2023-04-02T12:36:03.599Z,86.51
2023-04-02T12:38:36.983Z,86.35
2023-04-02T12:41:18.536Z,86.27
2023-04-02T12:43:46.296Z,86.61
2023-04-02T12:46:15.135Z,86.57
2023-04-02T12:48:43.040Z,86.78
2023-04-02T12:51:11.328Z,87.09
2023-04-02T12:53:41.249Z,86.81
2023-04-02T12:56:19.561Z,86.79
2023-04-02T12:58:58.857Z,86.73
2023-04-02T13:01:29.377Z,86.75
2023-04-02T13:04:01.626Z,87.19
2023-04-02T13:06:30.841Z,87.13
2023-04-02T13:08:59.998Z,87.15
2023-04-02T13:11:39.562Z,87.23
2023-04-02T13:14:17.277Z,87.32
2023-04-02T13:16:45.047Z,87.71
2023-04-02T13:19:24.155Z,87.07
2023-04-02T13:21:53.124Z,87.41
2023-04-02T13:24:42.150Z,87.26
2023-04-02T13:27:11.154Z,87.23
2023-04-02T13:29:38.914Z,87.98
2023-04-02T13:32:13.027Z,87.65
2023-04-02T13:34:40.734Z,87.53
2023-04-02T13:37:12.381Z,87.67
2023-04-02T13:39:40.107Z,87.70
2023-04-02T13:42:11.825Z,88.17
2023-04-02T13:44:39.648Z,87.78
2023-04-02T13:47:07.509Z,88.02
2023-04-02T13:49:36.027Z,87.81
2023-04-02T13:52:05.245Z,88.39
2023-04-02T13:54:46.656Z,87.87
2023-04-02T13:57:14.889Z,87.71
2023-04-02T13:59:42.823Z,88.11
2023-04-02T14:02:17.210Z,87.74
2023-04-02T14:04:52.877Z,88.37
2023-04-02T14:07:40.587Z,88.51
2023-04-02T14:10:15.072Z,88.11
2023-04-02T14:13:04.161Z,87.99
2023-04-02T14:15:44.747Z,88.22
2023-04-02T14:18:24.038Z,88.02
2023-04-02T14:21:07.893Z,87.73
2023-04-02T14:23:47.557Z,87.87
2023-04-02T14:27:05.999Z,88.14
2023-04-02T14:29:45.669Z,88.16
2023-04-02T14:32:49.205Z,88.40
2023-04-02T14:35:19.745Z,88.60
2023-04-02T14:38:00.099Z,88.43
2023-04-02T14:40:51.611Z,88.09
2023-04-02T14:43:37.072Z,88.22
2023-04-02T14:46:12.492Z,88.44
2023-04-02T14:48:47.838Z,88.07
2023-04-02T14:51:37.388Z,88.46
2023-04-02T14:54:23.546Z,88.41
2023-04-02T14:56:59.320Z,88.19
2023-04-02T14:59:34.057Z,88.40
2023-04-02T15:02:07.930Z,88.65
2023-04-02T15:04:45.793Z,88.79
2023-04-02T15:07:19.830Z,88.77
2023-04-02T15:10:14.312Z,88.80
2023-04-02T15:12:44.300Z,88.81
2023-04-02T15:15:11.971Z,88.70
2023-04-02T15:17:39.718Z,88.91
2023-04-02T15:20:18.821Z,89.36
2023-04-02T15:23:17.270Z,89.19
2023-04-02T15:25:55.478Z,88.98
2023-04-02T15:28:31.814Z,88.80
2023-04-02T15:31:07.274Z,88.83
2023-04-02T15:33:39.258Z,88.56
2023-04-02T15:36:36.994Z,88.51
2023-04-02T15:39:26.416Z,88.53
2023-04-02T15:42:17.000Z,88.39
2023-04-02T15:45:01.397Z,88.57
2023-04-02T15:47:56.153Z,88.54
2023-04-02T15:50:43.912Z,88.51
2023-04-02T15:53:39.272Z,88.59
2023-04-02T15:56:36.201Z,88.58
2023-04-02T15:59:40.925Z,88.93
2023-04-02T16:02:29.624Z,88.76
2023-04-02T16:05:04.089Z,88.84
2023-04-02T16:08:24.366Z,89.04
2023-04-02T16:10:52.056Z,88.96
2023-04-02T16:13:36.886Z,88.96
2023-04-02T16:16:10.748Z,88.65
2023-04-02T16:18:47.378Z,88.72
2023-04-02T16:21:20.702Z,88.75
2023-04-02T16:23:49.459Z,88.63
2023-04-02T16:26:29.449Z,88.63
2023-04-02T16:29:06.155Z,88.79
2023-04-02T16:31:47.101Z,88.78
2023-04-02T16:34:30.816Z,88.81
2023-04-02T16:37:12.630Z,88.96
2023-04-02T16:39:57.647Z,89.14
2023-04-02T16:42:48.408Z,89.16
2023-04-02T16:45:43.937Z,88.99
2023-04-02T16:48:25.073Z,88.76
2023-04-02T16:51:19.796Z,88.93
2023-04-02T16:54:01.392Z,88.96
2023-04-02T16:56:39.673Z,88.96
2023-04-02T16:59:17.730Z,89.03
2023-04-02T17:02:13.048Z,89.16
2023-04-02T17:05:10.228Z,89.06
2023-04-02T17:08:21.394Z,88.80
2023-04-02T17:11:01.356Z,88.63
2023-04-02T17:14:08.198Z,89.14
2023-04-02T17:16:42.950Z,88.65
2023-04-02T17:19:13.751Z,89.31
2023-04-02T17:21:46.403Z,89.11
2023-04-02T17:24:23.167Z,89.29
2023-04-02T17:26:56.465Z,89.03
2023-04-02T17:29:34.647Z,89.51
2023-04-02T17:32:04.616Z,88.91
2023-04-02T17:34:32.489Z,89.29
2023-04-02T17:37:11.514Z,89.41
2023-04-02T17:39:49.517Z,89.61
2023-04-02T17:42:36.200Z,89.39
2023-04-02T17:45:25.372Z,89.17
2023-04-02T17:48:24.913Z,89.64
2023-04-02T17:51:08.219Z,89.44
2023-04-02T17:53:54.506Z,89.20
2023-04-02T17:56:38.192Z,89.31
2023-04-02T17:59:23.753Z,89.48
2023-04-02T18:02:01.132Z,89.51
2023-04-02T18:04:47.108Z,89.56
2023-04-02T18:07:49.158Z,89.63
2023-04-02T18:10:23.034Z,89.33
2023-04-02T18:12:57.727Z,89.34
2023-04-02T18:15:41.343Z,89.52
2023-04-02T18:18:19.807Z,89.53
2023-04-02T18:21:21.530Z,89.47
2023-04-02T18:24:20.040Z,89.26
2023-04-02T18:27:09.314Z,89.34
2023-04-02T18:29:39.736Z,89.40
2023-04-02T18:32:19.422Z,89.25
2023-04-02T18:34:58.783Z,89.21
2023-04-02T18:37:32.531Z,89.16
2023-04-02T18:40:18.995Z,89.22
2023-04-02T18:42:59.841Z,89.20
2023-04-02T18:45:46.245Z,89.25
2023-04-02T18:48:39.239Z,89.04
2023-04-02T18:51:14.328Z,89.09
2023-04-02T18:53:43.180Z,89.02
2023-04-02T18:56:18.000Z,89.07
2023-04-02T18:58:52.973Z,89.15
2023-04-02T19:01:28.257Z,89.08
2023-04-02T19:04:06.293Z,89.18
2023-04-02T19:06:43.311Z,89.24
2023-04-02T19:09:21.341Z,89.20
2023-04-02T19:11:49.072Z,88.95
2023-04-02T19:14:19.447Z,88.99
2023-04-02T19:17:28.857Z,89.06
2023-04-02T19:20:05.893Z,88.92
2023-04-02T19:22:39.563Z,89.00
2023-04-02T19:25:35.985Z,89.00
2023-04-02T19:28:07.400Z,89.21
2023-04-02T19:30:58.398Z,89.08
2023-04-02T19:33:36.802Z,88.83
2023-04-02T19:36:32.260Z,88.86
2023-04-02T19:39:14.931Z,88.62
2023-04-02T19:41:51.699Z,88.89
2023-04-02T19:44:20.753Z,88.77
2023-04-02T19:46:51.443Z,88.75
2023-04-02T19:49:25.397Z,88.91
2023-04-02T19:51:53.735Z,88.48
2023-04-02T19:54:21.947Z,88.03
2023-04-02T19:56:50.141Z,88.61
2023-04-02T19:59:18.914Z,88.64
2023-04-02T20:01:47.339Z,88.53
2023-04-02T20:04:15.501Z,88.58
2023-04-02T20:06:43.705Z,88.20
2023-04-02T20:09:11.577Z,88.25
2023-04-02T20:11:39.335Z,88.15
2023-04-02T20:14:07.096Z,88.34
2023-04-02T20:16:36.878Z,88.20
2023-04-02T20:19:04.698Z,88.24
2023-04-02T20:21:38.243Z,88.23
2023-04-02T20:24:07.526Z,88.25
2023-04-02T20:26:36.700Z,88.03
2023-04-02T20:29:04.413Z,87.96
2023-04-02T20:31:32.774Z,87.76
2023-04-02T20:34:02.561Z,87.97
2023-04-02T20:36:31.295Z,87.97
2023-04-02T20:38:59.076Z,87.79
2023-04-02T20:41:27.475Z,87.68
2023-04-02T20:43:55.354Z,87.88
2023-04-02T20:46:23.163Z,87.13
2023-04-02T20:48:51.103Z,87.62
2023-04-02T20:51:18.754Z,87.29
2023-04-02T20:53:46.691Z,87.67
2023-04-02T20:56:16.656Z,87.27
2023-04-02T20:58:44.694Z,87.30
2023-04-02T21:01:21.522Z,87.20
2023-04-02T21:03:54.174Z,87.16
2023-04-02T21:06:23.947Z,86.72
2023-04-02T21:08:52.497Z,86.79
2023-04-02T21:11:22.468Z,86.69
2023-04-02T21:13:52.904Z,86.53
2023-04-02T21:16:23.526Z,86.26
2023-04-02T21:18:53.130Z,85.75
2023-04-02T21:21:22.675Z,86.01
2023-04-02T21:23:56.527Z,85.66
2023-04-02T21:26:27.044Z,84.63
2023-04-02T21:28:55.974Z,84.90
2023-04-02T21:31:26.518Z,84.54
2023-04-02T21:33:57.345Z,84.43
2023-04-02T21:36:29.067Z,84.41
2023-04-02T21:38:59.551Z,84.31
2023-04-02T21:41:30.771Z,84.05
2023-04-02T21:44:00.321Z,84.47
2023-04-02T21:46:30.597Z,84.38
2023-04-02T21:48:59.971Z,83.09
2023-04-02T21:51:30.104Z,82.85
2023-04-02T21:53:58.751Z,83.18
2023-04-02T21:56:29.961Z,81.37
2023-04-02T21:58:59.318Z,81.93
2023-04-02T22:01:28.837Z,81.49
2023-04-02T22:03:58.621Z,80.10
2023-04-02T22:06:28.308Z,79.62
2023-04-02T22:09:01.437Z,80.87
2023-04-02T22:11:35.033Z,80.99
2023-04-02T22:14:05.990Z,79.58
2023-04-02T22:16:35.685Z,80.31
2023-04-02T22:19:07.406Z,79.53
2023-04-02T22:21:36.194Z,79.31
2023-04-02T22:24:06.415Z,78.78
2023-04-02T22:26:35.092Z,79.46
2023-04-02T22:29:04.027Z,80.30
2023-04-02T22:31:34.945Z,79.36
2023-04-02T22:34:04.439Z,78.57
2023-04-02T22:36:32.864Z,78.45
2023-04-02T22:39:01.826Z,78.83
2023-04-02T22:41:32.052Z,78.30
2023-04-02T22:44:01.332Z,78.34
2023-04-02T22:46:30.315Z,77.58
2023-04-02T22:48:58.449Z,78.29
2023-04-02T22:51:28.083Z,78.41
2023-04-02T22:53:57.311Z,77.95
2023-04-02T22:56:28.870Z,78.13
2023-04-02T22:58:56.674Z,77.54
2023-04-02T23:01:33.837Z,77.18
2023-04-02T23:04:01.568Z,77.14
2023-04-02T23:06:29.637Z,76.56
2023-04-02T23:08:57.538Z,76.03
2023-04-02T23:11:27.518Z,75.34
2023-04-02T23:13:57.326Z,76.20
2023-04-02T23:16:27.667Z,75.64
2023-04-02T23:18:56.390Z,76.41
2023-04-02T23:21:25.152Z,75.56
2023-04-02T23:23:53.287Z,76.61
2023-04-02T23:26:29.235Z,76.14
2023-04-02T23:28:59.039Z,76.10
2023-04-02T23:31:27.504Z,75.27
2023-04-02T23:33:55.924Z,75.62
2023-04-02T23:36:28.450Z,75.15
2023-04-02T23:38:59.747Z,75.91
2023-04-02T23:41:29.089Z,75.02
2023-04-02T23:43:58.204Z,74.33
2023-04-02T23:46:26.535Z,75.71
2023-04-02T23:48:55.609Z,74.05
2023-04-02T23:51:24.853Z,74.78
2023-04-02T23:53:53.869Z,75.32
2023-04-02T23:56:22.886Z,75.12
2023-04-02T23:58:51.084Z,74.89
